sim
Sign-in with your pilot id or email,
or register
Callsign
Passwort

Schedule Details

Flight Number: OEO2587
Departure: Pamplona Airport (LEPP) at 08:20
Arrival: Munich Airport (EDDM) at 10:25

Weather Information
Getting current METAR information for LEPP 241730Z 27008KT 230V340 9999 SCT055 20/10 Q1011
Getting current METAR information for EDDM 241750Z 04003KT CAVOK 17/13 Q1005 NOSIG

Schedule Frequency

Route Map